Time;durP1;ratioP1;P1;durP2;ratioP2;P2;SDS_P1;SDS_P2;PMS_P1;PMS_P2;Temp;Humidity;BMP_temperature;BMP_pressure;BME280_temperature;BME280_humidity;BME280_pressure;Samples;Min_cycle;Max_cycle;Signal;HPM_P1;HPM_P2
2023/04/13 00:03:38;;;;;;;19.83;14.10;;;;;;;;;;13044982;22;20422;-82
2023/04/13 00:08:42;;;;;;;19.50;12.70;;;;;;;;;;13045358;22;20363;-83
2023/04/13 00:13:46;;;;;;;16.42;12.25;;;;;;;;;;13044934;22;20376;-83
2023/04/13 00:18:51;;;;;;;16.90;12.37;;;;;;;;;;13045199;22;20403;-82
2023/04/13 00:23:53;;;;;;;19.80;13.73;;;;;;;;;;13044063;22;20373;-83
2023/04/13 00:28:54;;;;;;;17.50;13.00;;;;;;;;;;13044738;22;20356;-83
2023/04/13 00:33:58;;;;;;;18.33;13.57;;;;;;;;;;13044251;22;20864;-83
2023/04/13 00:38:59;;;;;;;19.03;14.60;;;;;;;;;;13044967;22;20368;-83
2023/04/13 00:44:01;;;;;;;20.25;14.60;;;;;;;;;;13044109;22;20369;-83
2023/04/13 00:49:04;;;;;;;23.65;16.40;;;;;;;;;;13043471;22;20836;-83
2023/04/13 00:54:06;;;;;;;20.33;14.98;;;;;;;;;;13044658;22;20380;-83
2023/04/13 00:59:08;;;;;;;23.42;16.13;;;;;;;;;;13044836;22;20729;-83
2023/04/13 01:04:12;;;;;;;21.50;15.30;;;;;;;;;;13043771;22;20360;-83
2023/04/13 01:09:16;;;;;;;20.47;14.73;;;;;;;;;;13042986;22;20760;-83
2023/04/13 01:14:29;;;;;;;20.48;15.27;;;;;;;;;;13043772;22;20438;-83
2023/04/13 01:19:48;;;;;;;23.77;15.63;;;;;;;;;;13031776;22;20392;-83
2023/04/13 01:25:06;;;;;;;20.83;14.52;;;;;;;;;;13042172;22;20368;-83
2023/04/13 01:30:10;;;;;;;20.45;13.90;;;;;;;;;;13042437;22;20848;-84
2023/04/13 01:35:12;;;;;;;20.35;14.43;;;;;;;;;;13043407;22;20465;-83
2023/04/13 01:40:14;;;;;;;21.20;14.43;;;;;;;;;;13042541;22;20357;-83
2023/04/13 01:45:25;;;;;;;23.67;14.27;;;;;;;;;;13043399;22;20361;-83
2023/04/13 01:50:29;;;;;;;21.85;14.43;;;;;;;;;;13042613;22;20899;-83
2023/04/13 01:55:32;;;;;;;19.70;12.93;;;;;;;;;;13043500;22;20388;-83
2023/04/13 02:00:36;;;;;;;17.63;12.50;;;;;;;;;;13042751;22;20357;-83
2023/04/13 02:05:40;;;;;;;19.48;12.90;;;;;;;;;;13043463;22;20361;-84
2023/04/13 02:10:42;;;;;;;16.48;11.82;;;;;;;;;;13043021;22;20836;-83
2023/04/13 02:15:45;;;;;;;19.83;12.73;;;;;;;;;;13043363;22;20365;-83
2023/04/13 02:20:47;;;;;;;16.70;11.40;;;;;;;;;;13042869;22;20391;-83
2023/04/13 02:25:49;;;;;;;15.93;11.40;;;;;;;;;;13043021;22;20419;-83
2023/04/13 02:30:52;;;;;;;14.93;10.40;;;;;;;;;;13042766;22;20353;-84
2023/04/13 02:35:54;;;;;;;15.80;9.85;;;;;;;;;;13042579;22;20742;-84
2023/04/13 02:40:58;;;;;;;15.43;9.90;;;;;;;;;;13042458;22;20361;-84
2023/04/13 02:46:02;;;;;;;15.57;10.10;;;;;;;;;;13043137;22;20395;-83
2023/04/13 02:51:04;;;;;;;13.57;9.30;;;;;;;;;;13044884;22;20773;-83
2023/04/13 02:56:08;;;;;;;15.75;10.27;;;;;;;;;;13047024;22;20900;-84
2023/04/13 03:01:11;;;;;;;14.67;10.27;;;;;;;;;;13046503;22;20367;-83
2023/04/13 03:06:13;;;;;;;14.55;10.93;;;;;;;;;;13046797;22;20368;-84
2023/04/13 03:11:15;;;;;;;17.10;11.30;;;;;;;;;;13046407;22;20369;-84
2023/04/13 03:16:18;;;;;;;15.65;10.55;;;;;;;;;;13045142;22;20907;-83
2023/04/13 03:21:21;;;;;;;16.33;10.20;;;;;;;;;;13045708;22;20662;-84
2023/04/13 03:26:24;;;;;;;16.48;11.20;;;;;;;;;;13045640;22;20375;-83
2023/04/13 03:31:27;;;;;;;16.48;10.65;;;;;;;;;;13045373;22;20385;-83
2023/04/13 03:36:30;;;;;;;15.70;10.85;;;;;;;;;;13045134;22;20388;-84
2023/04/13 03:41:32;;;;;;;16.15;10.85;;;;;;;;;;13045656;22;20356;-84
2023/04/13 03:46:36;;;;;;;16.83;10.80;;;;;;;;;;13045840;22;20429;-83
2023/04/13 03:51:38;;;;;;;15.82;10.88;;;;;;;;;;13045518;22;20758;-83
2023/04/13 03:56:40;;;;;;;15.88;10.88;;;;;;;;;;13045791;22;20364;-84
2023/04/13 04:01:43;;;;;;;14.68;9.85;;;;;;;;;;13045181;22;20436;-84
2023/04/13 04:06:45;;;;;;;14.93;9.57;;;;;;;;;;13044695;22;20836;-84
2023/04/13 04:11:47;;;;;;;15.52;10.63;;;;;;;;;;13044535;22;20471;-84
2023/04/13 04:16:51;;;;;;;15.17;9.80;;;;;;;;;;13044888;22;20452;-84
2023/04/13 04:21:56;;;;;;;15.20;9.98;;;;;;;;;;13044352;22;20372;-84
2023/04/13 04:26:59;;;;;;;15.27;10.00;;;;;;;;;;13044669;22;20357;-84
2023/04/13 04:32:04;;;;;;;14.98;9.88;;;;;;;;;;13044456;22;20384;-83
2023/04/13 04:37:06;;;;;;;14.48;9.40;;;;;;;;;;13043682;22;20399;-83
2023/04/13 04:42:09;;;;;;;16.30;10.00;;;;;;;;;;13043831;22;20860;-83
2023/04/13 04:47:15;;;;;;;15.80;10.90;;;;;;;;;;13043841;22;20360;-83
2023/04/13 04:52:17;;;;;;;17.48;11.35;;;;;;;;;;13043901;22;20381;-82
2023/04/13 04:57:20;;;;;;;18.87;12.23;;;;;;;;;;13044564;22;20356;-83
2023/04/13 05:02:23;;;;;;;17.60;11.75;;;;;;;;;;13042667;22;20365;-82
2023/04/13 05:07:27;;;;;;;16.35;11.35;;;;;;;;;;13039881;22;20357;-82
2023/04/13 05:12:29;;;;;;;17.97;11.33;;;;;;;;;;13041160;22;20664;-82
2023/04/13 05:17:35;;;;;;;18.02;12.05;;;;;;;;;;13040545;22;20361;-81
2023/04/13 05:22:36;;;;;;;16.00;11.53;;;;;;;;;;13039664;22;20400;-82
2023/04/13 05:27:38;;;;;;;16.90;11.07;;;;;;;;;;13040813;22;20681;-82
2023/04/13 05:32:42;;;;;;;15.30;9.83;;;;;;;;;;13042822;22;20385;-82
2023/04/13 05:37:45;;;;;;;13.55;9.35;;;;;;;;;;13040052;22;20447;-84
2023/04/13 05:42:47;;;;;;;14.77;9.02;;;;;;;;;;13041056;22;20361;-90
2023/04/13 05:47:50;;;;;;;12.23;8.00;;;;;;;;;;13037185;22;20357;-83
2023/04/13 05:52:52;;;;;;;11.93;7.77;;;;;;;;;;13029910;22;20493;-82
2023/04/13 05:57:54;;;;;;;11.93;8.18;;;;;;;;;;13030721;22;20809;-82
2023/04/13 06:03:00;;;;;;;13.20;8.88;;;;;;;;;;13028586;22;20370;-82
2023/04/13 06:08:02;;;;;;;12.20;8.55;;;;;;;;;;13039917;22;20365;-82
2023/04/13 06:13:04;;;;;;;12.52;8.57;;;;;;;;;;13038284;22;20381;-83
2023/04/13 06:18:07;;;;;;;11.25;8.55;;;;;;;;;;13036424;22;20361;-83
2023/04/13 06:23:09;;;;;;;12.30;8.18;;;;;;;;;;13040104;22;20353;-82
2023/04/13 06:28:12;;;;;;;11.00;7.57;;;;;;;;;;13043448;22;20357;-82
2023/04/13 06:33:15;;;;;;;10.93;7.70;;;;;;;;;;13042027;22;20930;-83
2023/04/13 06:38:18;;;;;;;12.48;8.35;;;;;;;;;;13042938;22;20364;-83
2023/04/13 06:43:20;;;;;;;11.85;7.88;;;;;;;;;;13044262;22;20357;-83
2023/04/13 06:48:23;;;;;;;12.18;8.27;;;;;;;;;;13043332;22;20353;-82
2023/04/13 06:53:26;;;;;;;12.88;8.40;;;;;;;;;;13043847;22;20879;-82
2023/04/13 06:58:28;;;;;;;13.30;8.60;;;;;;;;;;13044399;22;20750;-82
2023/04/13 07:03:31;;;;;;;11.23;8.10;;;;;;;;;;13044144;22;20906;-77
2023/04/13 07:08:34;;;;;;;10.95;7.82;;;;;;;;;;13045025;22;20844;-77
2023/04/13 07:13:36;;;;;;;9.68;7.15;;;;;;;;;;13043849;22;20381;-77
2023/04/13 07:18:39;;;;;;;8.88;6.93;;;;;;;;;;13051259;22;20392;-91
2023/04/13 07:23:42;;;;;;;11.83;7.53;;;;;;;;;;13052372;22;20391;-90
2023/04/13 07:28:44;;;;;;;9.85;7.00;;;;;;;;;;13050930;22;20363;-90
2023/04/13 07:33:47;;;;;;;9.47;6.93;;;;;;;;;;13051040;22;20380;-83
2023/04/13 07:38:49;;;;;;;9.45;6.40;;;;;;;;;;13044769;22;20365;-83
2023/04/13 07:43:51;;;;;;;8.13;6.03;;;;;;;;;;13044487;22;20423;-83
2023/04/13 07:48:54;;;;;;;9.75;6.35;;;;;;;;;;13043107;22;20436;-83
2023/04/13 07:53:56;;;;;;;8.65;6.60;;;;;;;;;;13043800;22;20408;-83
2023/04/13 07:58:58;;;;;;;7.47;5.80;;;;;;;;;;13043961;22;20666;-83
2023/04/13 08:04:02;;;;;;;9.73;6.40;;;;;;;;;;13043839;22;20439;-83
2023/04/13 08:09:04;;;;;;;9.88;7.30;;;;;;;;;;13044860;22;20438;-82
2023/04/13 08:14:10;;;;;;;11.30;7.32;;;;;;;;;;13044526;22;20380;-83
2023/04/13 08:19:13;;;;;;;11.00;7.35;;;;;;;;;;13043349;22;20445;-82
2023/04/13 08:24:15;;;;;;;9.83;7.40;;;;;;;;;;13044022;22;20363;-83
2023/04/13 08:29:17;;;;;;;9.88;6.93;;;;;;;;;;13044279;22;20369;-83
2023/04/13 08:34:21;;;;;;;9.60;6.70;;;;;;;;;;13042594;22;20415;-82
2023/04/13 08:39:23;;;;;;;11.07;7.03;;;;;;;;;;13042889;22;20399;-83
2023/04/13 08:44:25;;;;;;;10.82;7.07;;;;;;;;;;13042210;22;20446;-84
2023/04/13 08:49:29;;;;;;;11.18;7.40;;;;;;;;;;13043235;22;20380;-84
2023/04/13 08:54:31;;;;;;;11.75;8.40;;;;;;;;;;13044011;22;20415;-84
2023/04/13 08:59:36;;;;;;;11.13;7.03;;;;;;;;;;13042388;22;20357;-83
2023/04/13 09:04:42;;;;;;;10.15;6.65;;;;;;;;;;13043442;22;20373;-84
2023/04/13 09:09:45;;;;;;;11.15;7.15;;;;;;;;;;13042839;22;20654;-84
2023/04/13 09:14:48;;;;;;;10.77;7.18;;;;;;;;;;13043170;22;20415;-83
2023/04/13 09:19:51;;;;;;;10.57;7.00;;;;;;;;;;13043397;22;20400;-84
2023/04/13 09:24:53;;;;;;;8.43;6.50;;;;;;;;;;13041754;22;20836;-84
2023/04/13 09:29:57;;;;;;;9.38;6.65;;;;;;;;;;13041413;22;20372;-83
2023/04/13 09:35:03;;;;;;;9.18;6.63;;;;;;;;;;13041706;22;20381;-83
2023/04/13 09:40:10;;;;;;;9.45;6.53;;;;;;;;;;13043355;22;20397;-83
2023/04/13 09:45:12;;;;;;;9.70;6.57;;;;;;;;;;13041931;22;20844;-83
2023/04/13 09:50:21;;;;;;;6.85;5.80;;;;;;;;;;13041524;22;20460;-83
2023/04/13 09:55:23;;;;;;;8.75;7.07;;;;;;;;;;13041726;22;20487;-83
2023/04/13 10:00:25;;;;;;;8.13;6.38;;;;;;;;;;13040253;22;20372;-83
2023/04/13 10:05:30;;;;;;;8.73;6.53;;;;;;;;;;13042588;22;20429;-84
2023/04/13 10:10:33;;;;;;;7.93;6.53;;;;;;;;;;13042106;22;20376;-83
2023/04/13 10:15:55;;;;;;;8.25;6.30;;;;;;;;;;13040380;22;20388;-81
2023/04/13 10:21:00;;;;;;;9.18;6.55;;;;;;;;;;13040189;22;20407;-83
2023/04/13 10:26:03;;;;;;;9.63;7.20;;;;;;;;;;13013397;22;20448;-82
2023/04/13 10:31:07;;;;;;;7.85;6.72;;;;;;;;;;13041450;22;20363;-83
2023/04/13 10:36:12;;;;;;;7.23;5.87;;;;;;;;;;13041372;22;20412;-83
2023/04/13 10:41:23;;;;;;;7.45;6.15;;;;;;;;;;13041682;22;20357;-83
2023/04/13 10:46:25;;;;;;;7.70;6.20;;;;;;;;;;13040881;22;20395;-83
2023/04/13 10:51:39;;;;;;;7.27;6.07;;;;;;;;;;13040192;22;20365;-83
2023/04/13 10:56:41;;;;;;;4.67;4.17;;;;;;;;;;13040639;22;20710;-83
2023/04/13 11:01:44;;;;;;;2.00;1.70;;;;;;;;;;13040981;22;20372;-82
2023/04/13 11:06:50;;;;;;;1.67;1.58;;;;;;;;;;13040293;22;20972;-84
2023/04/13 11:11:52;;;;;;;1.58;1.35;;;;;;;;;;13042574;22;20466;-84
2023/04/13 11:16:54;;;;;;;1.58;1.40;;;;;;;;;;13034145;22;20392;-84
2023/04/13 11:21:58;;;;;;;1.93;1.40;;;;;;;;;;13034965;22;21061;-82
2023/04/13 11:27:00;;;;;;;1.40;1.20;;;;;;;;;;13035649;22;20373;-84
2023/04/13 11:32:04;;;;;;;2.67;1.30;;;;;;;;;;13036466;22;20436;-84
2023/04/13 11:37:07;;;;;;;1.10;0.90;;;;;;;;;;13033489;22;20385;-83
2023/04/13 11:42:10;;;;;;;1.30;0.90;;;;;;;;;;13035256;22;20453;-84
2023/04/13 11:47:15;;;;;;;2.00;1.10;;;;;;;;;;13035022;22;20857;-84
2023/04/13 11:52:18;;;;;;;1.48;0.80;;;;;;;;;;13035452;22;20381;-84
2023/04/13 11:57:20;;;;;;;0.73;0.65;;;;;;;;;;13035058;22;20411;-85
2023/04/13 12:02:26;;;;;;;1.30;0.60;;;;;;;;;;13037078;22;20436;-84
2023/04/13 12:07:31;;;;;;;0.52;0.47;;;;;;;;;;13036319;22;20643;-84
2023/04/13 12:12:33;;;;;;;0.77;0.70;;;;;;;;;;13038197;22;20855;-82
2023/04/13 12:17:35;;;;;;;0.40;0.40;;;;;;;;;;13039193;22;20912;-84
2023/04/13 12:22:40;;;;;;;0.80;0.60;;;;;;;;;;13040796;22;20376;-83
2023/04/13 12:27:42;;;;;;;0.93;0.73;;;;;;;;;;13042002;22;20369;-83
2023/04/13 12:32:45;;;;;;;0.85;0.65;;;;;;;;;;13038975;22;20364;-83
2023/04/13 12:37:49;;;;;;;0.60;0.43;;;;;;;;;;13041846;22;20372;-83
2023/04/13 12:42:50;;;;;;;0.30;0.30;;;;;;;;;;13041803;22;20373;-83
2023/04/13 12:47:52;;;;;;;0.83;0.50;;;;;;;;;;13042178;22;20659;-83
2023/04/13 12:52:55;;;;;;;0.70;0.47;;;;;;;;;;13043395;22;20430;-84
2023/04/13 12:57:58;;;;;;;1.50;0.75;;;;;;;;;;13042062;22;20440;-84
2023/04/13 13:03:00;;;;;;;0.90;0.60;;;;;;;;;;13042677;22;20400;-83
2023/04/13 13:08:03;;;;;;;1.42;0.60;;;;;;;;;;13042050;22;21369;-83
2023/04/13 13:13:05;;;;;;;1.50;0.55;;;;;;;;;;13042098;22;20361;-82
2023/04/13 13:18:09;;;;;;;0.77;0.40;;;;;;;;;;13042001;22;20407;-84
2023/04/13 13:23:12;;;;;;;0.68;0.50;;;;;;;;;;13041090;22;20441;-83
2023/04/13 13:28:14;;;;;;;0.63;0.47;;;;;;;;;;13041795;22;20436;-83
2023/04/13 13:33:16;;;;;;;0.40;0.30;;;;;;;;;;13040547;22;20928;-84
2023/04/13 13:38:19;;;;;;;1.93;0.40;;;;;;;;;;13041196;22;20682;-84
2023/04/13 13:43:21;;;;;;;1.20;0.63;;;;;;;;;;13041075;22;20858;-83
2023/04/13 13:48:23;;;;;;;1.10;0.50;;;;;;;;;;13042486;22;20352;-84
2023/04/13 13:53:26;;;;;;;2.28;0.40;;;;;;;;;;13040809;22;20380;-83
2023/04/13 13:58:28;;;;;;;0.50;0.40;;;;;;;;;;13041913;22;20388;-83
2023/04/13 14:03:31;;;;;;;1.42;0.40;;;;;;;;;;13042043;22;20352;-82
2023/04/13 14:08:34;;;;;;;1.65;0.60;;;;;;;;;;13036607;22;20451;-84
2023/04/13 14:13:36;;;;;;;0.95;0.50;;;;;;;;;;13037049;22;20387;-83
2023/04/13 14:18:38;;;;;;;0.73;0.40;;;;;;;;;;13030862;22;20690;-83
2023/04/13 14:23:41;;;;;;;3.33;0.77;;;;;;;;;;13037497;22;20371;-84
2023/04/13 14:28:43;;;;;;;1.20;0.75;;;;;;;;;;13034107;22;20361;-83
2023/04/13 14:33:45;;;;;;;1.93;1.10;;;;;;;;;;13029700;22;20385;-83
2023/04/13 14:38:50;;;;;;;5.30;3.22;;;;;;;;;;13028634;22;20784;-82
2023/04/13 14:43:52;;;;;;;3.22;1.65;;;;;;;;;;13031511;22;20376;-81
2023/04/13 14:48:53;;;;;;;2.30;1.70;;;;;;;;;;13032507;22;20709;-81
2023/04/13 14:53:57;;;;;;;1.77;1.33;;;;;;;;;;13030217;22;21491;-81
2023/04/13 14:58:59;;;;;;;2.17;1.00;;;;;;;;;;13032245;22;20438;-81
2023/04/13 15:04:01;;;;;;;2.85;0.85;;;;;;;;;;13032689;22;20383;-81
2023/04/13 15:09:06;;;;;;;1.50;0.50;;;;;;;;;;13031216;22;20400;-81
2023/04/13 15:14:07;;;;;;;2.55;1.30;;;;;;;;;;13031538;22;20454;-80
2023/04/13 15:19:09;;;;;;;2.40;0.90;;;;;;;;;;13027097;22;20436;-81
2023/04/13 15:24:12;;;;;;;2.97;0.50;;;;;;;;;;13030674;22;20380;-81
2023/04/13 15:29:14;;;;;;;5.60;3.37;;;;;;;;;;13030412;22;20373;-82
2023/04/13 15:34:16;;;;;;;5.88;3.13;;;;;;;;;;13030319;22;20385;-82
2023/04/13 15:39:19;;;;;;;3.95;2.38;;;;;;;;;;13027925;22;20402;-81
2023/04/13 15:44:21;;;;;;;8.57;4.93;;;;;;;;;;13027086;22;20373;-81
2023/04/13 15:49:23;;;;;;;5.38;3.15;;;;;;;;;;13026875;22;20384;-80
2023/04/13 15:54:26;;;;;;;2.38;1.80;;;;;;;;;;13028988;22;20417;-82
2023/04/13 15:59:29;;;;;;;3.10;2.13;;;;;;;;;;13030586;22;20434;-82
2023/04/13 16:04:31;;;;;;;3.77;2.47;;;;;;;;;;13027025;22;20744;-83
2023/04/13 16:09:34;;;;;;;2.75;1.80;;;;;;;;;;13030339;22;20742;-82
2023/04/13 16:14:40;;;;;;;2.30;1.90;;;;;;;;;;13031040;22;20499;-82
2023/04/13 16:19:45;;;;;;;3.85;1.73;;;;;;;;;;13030474;22;20369;-81
2023/04/13 16:24:48;;;;;;;3.17;1.53;;;;;;;;;;13033056;22;20414;-83
2023/04/13 16:29:50;;;;;;;3.10;2.70;;;;;;;;;;13032017;22;20369;-83
2023/04/13 16:34:52;;;;;;;3.55;2.10;;;;;;;;;;13033172;22;20384;-85
2023/04/13 16:39:56;;;;;;;4.00;2.00;;;;;;;;;;13026878;22;20369;-85
2023/04/13 16:44:57;;;;;;;2.80;1.60;;;;;;;;;;13031479;22;20381;-85
2023/04/13 16:49:59;;;;;;;4.30;2.00;;;;;;;;;;13028387;22;20384;-86
2023/04/13 16:55:05;;;;;;;1.63;1.52;;;;;;;;;;13029475;22;20921;-83
2023/04/13 17:00:09;;;;;;;1.60;1.30;;;;;;;;;;13030318;22;20396;-85
2023/04/13 17:05:12;;;;;;;2.00;1.30;;;;;;;;;;13028659;22;20376;-84
2023/04/13 17:10:17;;;;;;;1.20;1.00;;;;;;;;;;13028782;22;20577;-84
2023/04/13 17:15:19;;;;;;;2.10;1.30;;;;;;;;;;13029923;22;20389;-85
2023/04/13 17:20:21;;;;;;;2.00;1.13;;;;;;;;;;13027193;22;20848;-85
2023/04/13 17:25:25;;;;;;;1.40;1.10;;;;;;;;;;13003778;22;20876;-85
2023/04/13 17:30:27;;;;;;;2.80;1.33;;;;;;;;;;13029767;22;20872;-85
2023/04/13 17:35:28;;;;;;;1.48;1.30;;;;;;;;;;13029480;22;20384;-83
2023/04/13 17:40:31;;;;;;;2.58;1.85;;;;;;;;;;13027013;22;20381;-85
2023/04/13 17:45:33;;;;;;;2.30;1.60;;;;;;;;;;13029457;22;20373;-84
2023/04/13 17:50:35;;;;;;;3.30;1.70;;;;;;;;;;13029721;22;20376;-83
2023/04/13 17:55:38;;;;;;;1.67;1.10;;;;;;;;;;13028857;22;20420;-85
2023/04/13 18:00:40;;;;;;;1.30;1.00;;;;;;;;;;13031325;22;20438;-85
2023/04/13 18:05:44;;;;;;;1.00;0.90;;;;;;;;;;13032170;22;20454;-84
2023/04/13 18:10:47;;;;;;;1.00;0.75;;;;;;;;;;13030336;22;20373;-85
2023/04/13 18:15:49;;;;;;;1.40;0.85;;;;;;;;;;13029699;22;20387;-85
2023/04/13 18:20:51;;;;;;;1.07;0.90;;;;;;;;;;13030180;22;20994;-84
2023/04/13 18:25:55;;;;;;;1.58;1.20;;;;;;;;;;13020880;22;20863;-85
2023/04/13 18:30:59;;;;;;;0.95;0.70;;;;;;;;;;13031227;22;20372;-85
2023/04/13 18:36:01;;;;;;;0.75;0.75;;;;;;;;;;13031145;22;20388;-85
2023/04/13 18:41:04;;;;;;;1.30;1.00;;;;;;;;;;13031569;22;21212;-85
2023/04/13 18:46:07;;;;;;;1.00;0.90;;;;;;;;;;13032135;22;20686;-84
2023/04/13 18:51:11;;;;;;;1.00;0.50;;;;;;;;;;13028645;22;20372;-84
2023/04/13 18:56:14;;;;;;;0.52;0.50;;;;;;;;;;13031740;22;20381;-84
2023/04/13 19:01:16;;;;;;;0.30;0.28;;;;;;;;;;13032924;22;20408;-86
2023/04/13 19:06:18;;;;;;;0.40;0.30;;;;;;;;;;13033671;22;20746;-83
2023/04/13 19:11:26;;;;;;;0.43;0.40;;;;;;;;;;13031476;22;20852;-84
2023/04/13 19:16:27;;;;;;;0.25;0.25;;;;;;;;;;13031910;22;20384;-84
2023/04/13 19:21:30;;;;;;;1.00;0.52;;;;;;;;;;13030622;22;20455;-83
2023/04/13 19:26:33;;;;;;;1.20;0.60;;;;;;;;;;13033837;22;20361;-84
2023/04/13 19:31:36;;;;;;;0.70;0.60;;;;;;;;;;13033513;22;20400;-82
2023/04/13 19:36:39;;;;;;;1.60;0.90;;;;;;;;;;13034687;22;20705;-85
2023/04/13 19:41:43;;;;;;;0.80;0.80;;;;;;;;;;13034008;22;20442;-85
2023/04/13 19:46:45;;;;;;;0.70;0.60;;;;;;;;;;13030603;22;20416;-85
2023/04/13 19:51:47;;;;;;;0.70;0.70;;;;;;;;;;13030336;22;20369;-84
2023/04/13 19:56:50;;;;;;;0.70;0.70;;;;;;;;;;13031784;22;20384;-84
2023/04/13 20:01:52;;;;;;;0.80;0.60;;;;;;;;;;13030656;22;20410;-85
2023/04/13 20:06:55;;;;;;;1.43;0.70;;;;;;;;;;13032227;22;20369;-85
2023/04/13 20:11:59;;;;;;;1.30;0.80;;;;;;;;;;13029369;22;20372;-85
2023/04/13 20:17:01;;;;;;;0.63;0.63;;;;;;;;;;13029963;22;20423;-87
2023/04/13 20:22:04;;;;;;;1.55;0.95;;;;;;;;;;13030380;22;20769;-85
2023/04/13 20:27:08;;;;;;;1.52;0.88;;;;;;;;;;13030416;22;20369;-86
2023/04/13 20:32:10;;;;;;;1.10;0.80;;;;;;;;;;13028105;22;20361;-86
2023/04/13 20:37:12;;;;;;;1.30;0.80;;;;;;;;;;13031418;22;20376;-86
2023/04/13 20:42:17;;;;;;;2.85;1.35;;;;;;;;;;13031831;22;20850;-86
2023/04/13 20:47:24;;;;;;;1.85;1.10;;;;;;;;;;13032526;22;20699;-86
2023/04/13 20:52:28;;;;;;;3.22;2.03;;;;;;;;;;13032333;22;20377;-85
2023/04/13 20:57:31;;;;;;;2.72;1.30;;;;;;;;;;13032427;22;20705;-86
2023/04/13 21:02:33;;;;;;;0.93;0.43;;;;;;;;;;13030937;22;20936;-86
2023/04/13 21:07:35;;;;;;;0.30;0.20;;;;;;;;;;13034510;22;20376;-84
2023/04/13 21:12:39;;;;;;;0.50;0.30;;;;;;;;;;13031758;22;20404;-86
2023/04/13 21:17:41;;;;;;;0.80;0.50;;;;;;;;;;13032434;22;20381;-85
2023/04/13 21:22:42;;;;;;;1.20;0.70;;;;;;;;;;13031541;22;20780;-86
2023/04/13 21:27:46;;;;;;;1.00;0.60;;;;;;;;;;13032381;22;20391;-86
2023/04/13 21:32:47;;;;;;;1.08;0.60;;;;;;;;;;13031408;22;20358;-85
2023/04/13 21:37:49;;;;;;;0.77;0.70;;;;;;;;;;13034918;22;20384;-86
2023/04/13 21:42:52;;;;;;;0.98;0.80;;;;;;;;;;13033377;22;20709;-86
2023/04/13 21:47:54;;;;;;;1.00;0.60;;;;;;;;;;13033415;22;20720;-86
2023/04/13 21:52:56;;;;;;;0.60;0.60;;;;;;;;;;13034056;22;20410;-86
2023/04/13 21:58:00;;;;;;;0.40;0.30;;;;;;;;;;13034273;22;20400;-86
2023/04/13 22:03:02;;;;;;;0.80;0.40;;;;;;;;;;13034162;22;20372;-87
2023/04/13 22:08:06;;;;;;;0.85;0.60;;;;;;;;;;13035466;22;21429;-86
2023/04/13 22:13:09;;;;;;;0.80;0.57;;;;;;;;;;13034465;22;20368;-86
2023/04/13 22:18:11;;;;;;;0.30;0.30;;;;;;;;;;13031585;22;20446;-86
2023/04/13 22:23:13;;;;;;;0.30;0.23;;;;;;;;;;13032238;22;20430;-87
2023/04/13 22:28:17;;;;;;;0.90;0.30;;;;;;;;;;13028798;22;20392;-87
2023/04/13 22:33:18;;;;;;;0.20;0.20;;;;;;;;;;13029932;22;20826;-86
2023/04/13 22:38:20;;;;;;;0.17;0.13;;;;;;;;;;13031244;22;20387;-87
2023/04/13 22:43:23;;;;;;;0.27;0.20;;;;;;;;;;13032145;22;20459;-86
2023/04/13 22:48:27;;;;;;;0.10;0.10;;;;;;;;;;13030837;22;20380;-87
2023/04/13 22:53:29;;;;;;;0.22;0.20;;;;;;;;;;13031550;22;20385;-87
2023/04/13 22:58:32;;;;;;;0.80;0.60;;;;;;;;;;13030965;22;20388;-87
2023/04/13 23:03:34;;;;;;;1.15;0.47;;;;;;;;;;13033894;22;20463;-87
2023/04/13 23:08:36;;;;;;;1.00;0.40;;;;;;;;;;13037241;22;20415;-87
2023/04/13 23:13:40;;;;;;;0.80;0.50;;;;;;;;;;13035970;22;20408;-87
2023/04/13 23:18:42;;;;;;;0.70;0.50;;;;;;;;;;13034192;22;20888;-87
2023/04/13 23:23:44;;;;;;;0.60;0.60;;;;;;;;;;13036109;22;20379;-86
2023/04/13 23:28:47;;;;;;;0.70;0.52;;;;;;;;;;13037999;22;20403;-84
2023/04/13 23:33:49;;;;;;;1.10;1.00;;;;;;;;;;13038313;22;20404;-85
2023/04/13 23:38:51;;;;;;;1.30;0.90;;;;;;;;;;13036993;22;20435;-85
2023/04/13 23:43:54;;;;;;;0.90;0.80;;;;;;;;;;13035457;22;20713;-86
2023/04/13 23:48:56;;;;;;;0.90;0.90;;;;;;;;;;13037848;22;20451;-87
2023/04/13 23:53:57;;;;;;;1.05;0.80;;;;;;;;;;13037373;22;20456;-87
2023/04/13 23:59:01;;;;;;;1.15;1.00;;;;;;;;;;13035923;22;20411;-87
